sensor_id;sensor_type;location;lat;lon;timestamp;P1;durP1;ratioP1;P2;durP2;ratioP2
71606;SDS011;60641;53.556;9.914;2023-02-14T00:02:23;35.30;;;16.50;;
71606;SDS011;60641;53.556;9.914;2023-02-14T00:04:50;35.90;;;16.40;;
71606;SDS011;60641;53.556;9.914;2023-02-14T00:07:16;35.10;;;14.40;;
71606;SDS011;60641;53.556;9.914;2023-02-14T00:09:43;33.40;;;14.70;;
71606;SDS011;60641;53.556;9.914;2023-02-14T00:12:09;34.90;;;16.50;;
71606;SDS011;60641;53.556;9.914;2023-02-14T00:14:35;32.50;;;14.90;;
71606;SDS011;60641;53.556;9.914;2023-02-14T00:17:20;32.30;;;13.70;;
71606;SDS011;60641;53.556;9.914;2023-02-14T00:19:47;34.30;;;15.50;;
71606;SDS011;60641;53.556;9.914;2023-02-14T00:22:13;33.30;;;15.30;;
71606;SDS011;60641;53.556;9.914;2023-02-14T00:24:40;33.70;;;15.20;;
71606;SDS011;60641;53.556;9.914;2023-02-14T00:27:06;34.00;;;13.80;;
71606;SDS011;60641;53.556;9.914;2023-02-14T00:29:33;36.10;;;15.30;;
71606;SDS011;60641;53.556;9.914;2023-02-14T00:31:59;34.20;;;15.60;;
71606;SDS011;60641;53.556;9.914;2023-02-14T00:34:26;30.00;;;14.00;;
71606;SDS011;60641;53.556;9.914;2023-02-14T00:36:53;34.80;;;15.10;;
71606;SDS011;60641;53.556;9.914;2023-02-14T00:39:19;34.60;;;15.20;;
71606;SDS011;60641;53.556;9.914;2023-02-14T00:41:46;33.30;;;14.60;;
71606;SDS011;60641;53.556;9.914;2023-02-14T00:44:12;35.80;;;16.90;;
71606;SDS011;60641;53.556;9.914;2023-02-14T00:46:39;34.90;;;15.60;;
71606;SDS011;60641;53.556;9.914;2023-02-14T00:49:06;34.60;;;15.40;;
71606;SDS011;60641;53.556;9.914;2023-02-14T00:51:32;34.50;;;14.70;;
71606;SDS011;60641;53.556;9.914;2023-02-14T00:53:59;37.40;;;16.20;;
71606;SDS011;60641;53.556;9.914;2023-02-14T00:56:26;34.70;;;15.30;;
71606;SDS011;60641;53.556;9.914;2023-02-14T00:58:52;35.40;;;15.80;;
71606;SDS011;60641;53.556;9.914;2023-02-14T01:01:19;32.70;;;13.50;;
71606;SDS011;60641;53.556;9.914;2023-02-14T01:03:45;36.70;;;15.40;;
71606;SDS011;60641;53.556;9.914;2023-02-14T01:06:12;36.40;;;16.40;;
71606;SDS011;60641;53.556;9.914;2023-02-14T01:08:39;32.30;;;14.50;;
71606;SDS011;60641;53.556;9.914;2023-02-14T01:11:10;33.10;;;14.10;;
71606;SDS011;60641;53.556;9.914;2023-02-14T01:13:38;32.50;;;14.60;;
71606;SDS011;60641;53.556;9.914;2023-02-14T01:16:07;33.00;;;15.50;;
71606;SDS011;60641;53.556;9.914;2023-02-14T01:18:35;36.90;;;15.50;;
71606;SDS011;60641;53.556;9.914;2023-02-14T01:21:22;33.50;;;15.00;;
71606;SDS011;60641;53.556;9.914;2023-02-14T01:23:49;36.00;;;15.90;;
71606;SDS011;60641;53.556;9.914;2023-02-14T01:26:19;37.60;;;15.40;;
71606;SDS011;60641;53.556;9.914;2023-02-14T01:28:46;33.50;;;15.20;;
71606;SDS011;60641;53.556;9.914;2023-02-14T01:31:17;31.80;;;13.90;;
71606;SDS011;60641;53.556;9.914;2023-02-14T01:33:48;35.60;;;15.70;;
71606;SDS011;60641;53.556;9.914;2023-02-14T01:38:52;36.20;;;14.50;;
71606;SDS011;60641;53.556;9.914;2023-02-14T01:41:20;35.00;;;15.50;;
71606;SDS011;60641;53.556;9.914;2023-02-14T01:46:34;35.00;;;14.90;;
71606;SDS011;60641;53.556;9.914;2023-02-14T01:49:04;34.10;;;15.40;;
71606;SDS011;60641;53.556;9.914;2023-02-14T01:51:41;34.30;;;15.20;;
71606;SDS011;60641;53.556;9.914;2023-02-14T01:54:15;33.00;;;13.70;;
71606;SDS011;60641;53.556;9.914;2023-02-14T01:56:44;32.10;;;13.20;;
71606;SDS011;60641;53.556;9.914;2023-02-14T01:59:15;33.10;;;14.30;;
71606;SDS011;60641;53.556;9.914;2023-02-14T02:01:44;37.10;;;14.60;;
71606;SDS011;60641;53.556;9.914;2023-02-14T02:04:16;36.30;;;15.40;;
71606;SDS011;60641;53.556;9.914;2023-02-14T02:06:47;34.90;;;15.80;;
71606;SDS011;60641;53.556;9.914;2023-02-14T02:11:53;35.60;;;15.40;;
71606;SDS011;60641;53.556;9.914;2023-02-14T02:14:21;37.60;;;16.30;;
71606;SDS011;60641;53.556;9.914;2023-02-14T02:49:19;33.90;;;15.10;;
71606;SDS011;60641;53.556;9.914;2023-02-14T02:52:10;35.40;;;15.60;;
71606;SDS011;60641;53.556;9.914;2023-02-14T02:55:02;37.30;;;15.80;;
71606;SDS011;60641;53.556;9.914;2023-02-14T02:57:33;36.40;;;16.40;;
71606;SDS011;60641;53.556;9.914;2023-02-14T03:00:03;39.60;;;17.50;;
71606;SDS011;60641;53.556;9.914;2023-02-14T03:02:35;40.20;;;17.70;;
71606;SDS011;60641;53.556;9.914;2023-02-14T03:05:25;37.20;;;17.00;;
71606;SDS011;60641;53.556;9.914;2023-02-14T03:07:52;41.00;;;17.60;;
71606;SDS011;60641;53.556;9.914;2023-02-14T03:10:20;43.50;;;18.40;;
71606;SDS011;60641;53.556;9.914;2023-02-14T03:27:05;38.80;;;17.40;;
71606;SDS011;60641;53.556;9.914;2023-02-14T03:29:38;38.80;;;17.90;;
71606;SDS011;60641;53.556;9.914;2023-02-14T03:32:16;40.40;;;17.70;;
71606;SDS011;60641;53.556;9.914;2023-02-14T03:34:54;40.40;;;18.20;;
71606;SDS011;60641;53.556;9.914;2023-02-14T03:37:27;37.90;;;16.80;;
71606;SDS011;60641;53.556;9.914;2023-02-14T03:45:47;39.90;;;17.80;;
71606;SDS011;60641;53.556;9.914;2023-02-14T03:48:17;40.00;;;17.00;;
71606;SDS011;60641;53.556;9.914;2023-02-14T03:50:45;40.80;;;17.20;;
71606;SDS011;60641;53.556;9.914;2023-02-14T03:53:13;41.40;;;17.60;;
71606;SDS011;60641;53.556;9.914;2023-02-14T03:55:43;39.40;;;17.30;;
71606;SDS011;60641;53.556;9.914;2023-02-14T03:58:22;39.20;;;17.10;;
71606;SDS011;60641;53.556;9.914;2023-02-14T04:00:55;38.60;;;16.90;;
71606;SDS011;60641;53.556;9.914;2023-02-14T04:03:25;40.50;;;17.60;;
71606;SDS011;60641;53.556;9.914;2023-02-14T04:05:53;38.70;;;16.70;;
71606;SDS011;60641;53.556;9.914;2023-02-14T04:08:20;41.50;;;18.30;;
71606;SDS011;60641;53.556;9.914;2023-02-14T04:10:49;38.40;;;17.10;;
71606;SDS011;60641;53.556;9.914;2023-02-14T04:13:17;38.70;;;16.90;;
71606;SDS011;60641;53.556;9.914;2023-02-14T04:15:43;44.80;;;17.70;;
71606;SDS011;60641;53.556;9.914;2023-02-14T04:18:10;35.40;;;15.10;;
71606;SDS011;60641;53.556;9.914;2023-02-14T04:20:55;41.00;;;16.20;;
71606;SDS011;60641;53.556;9.914;2023-02-14T04:23:21;38.70;;;17.30;;
71606;SDS011;60641;53.556;9.914;2023-02-14T04:25:48;39.40;;;16.90;;
71606;SDS011;60641;53.556;9.914;2023-02-14T04:28:14;41.40;;;18.40;;
71606;SDS011;60641;53.556;9.914;2023-02-14T04:30:41;39.90;;;17.20;;
71606;SDS011;60641;53.556;9.914;2023-02-14T04:33:07;38.50;;;16.40;;
71606;SDS011;60641;53.556;9.914;2023-02-14T04:35:35;39.10;;;16.60;;
71606;SDS011;60641;53.556;9.914;2023-02-14T04:38:02;39.30;;;17.30;;
71606;SDS011;60641;53.556;9.914;2023-02-14T04:40:29;34.10;;;15.40;;
71606;SDS011;60641;53.556;9.914;2023-02-14T04:42:55;39.90;;;17.80;;
71606;SDS011;60641;53.556;9.914;2023-02-14T04:45:22;40.00;;;17.70;;
71606;SDS011;60641;53.556;9.914;2023-02-14T04:47:49;38.90;;;17.50;;
71606;SDS011;60641;53.556;9.914;2023-02-14T04:50:15;34.70;;;14.70;;
71606;SDS011;60641;53.556;9.914;2023-02-14T04:52:42;41.40;;;16.70;;
71606;SDS011;60641;53.556;9.914;2023-02-14T04:55:09;37.20;;;16.20;;
71606;SDS011;60641;53.556;9.914;2023-02-14T04:57:35;40.90;;;16.90;;
71606;SDS011;60641;53.556;9.914;2023-02-14T05:00:02;40.00;;;17.10;;
71606;SDS011;60641;53.556;9.914;2023-02-14T05:02:31;39.20;;;17.00;;
71606;SDS011;60641;53.556;9.914;2023-02-14T05:04:57;41.60;;;16.70;;
71606;SDS011;60641;53.556;9.914;2023-02-14T05:07:24;40.60;;;17.00;;
71606;SDS011;60641;53.556;9.914;2023-02-14T05:09:50;38.50;;;17.00;;
71606;SDS011;60641;53.556;9.914;2023-02-14T05:12:16;40.00;;;17.80;;
71606;SDS011;60641;53.556;9.914;2023-02-14T05:14:43;39.40;;;16.70;;
71606;SDS011;60641;53.556;9.914;2023-02-14T05:17:09;37.70;;;16.50;;
71606;SDS011;60641;53.556;9.914;2023-02-14T05:19:36;39.10;;;17.20;;
71606;SDS011;60641;53.556;9.914;2023-02-14T05:22:02;42.40;;;18.20;;
71606;SDS011;60641;53.556;9.914;2023-02-14T05:24:29;39.40;;;16.80;;
71606;SDS011;60641;53.556;9.914;2023-02-14T05:26:55;43.90;;;16.50;;
71606;SDS011;60641;53.556;9.914;2023-02-14T05:29:22;37.60;;;15.50;;
71606;SDS011;60641;53.556;9.914;2023-02-14T05:31:48;35.50;;;15.80;;
71606;SDS011;60641;53.556;9.914;2023-02-14T05:34:15;40.00;;;16.70;;
71606;SDS011;60641;53.556;9.914;2023-02-14T05:36:41;33.90;;;15.70;;
71606;SDS011;60641;53.556;9.914;2023-02-14T05:39:08;36.40;;;16.80;;
71606;SDS011;60641;53.556;9.914;2023-02-14T05:41:34;35.30;;;16.00;;
71606;SDS011;60641;53.556;9.914;2023-02-14T05:44:00;37.40;;;16.60;;
71606;SDS011;60641;53.556;9.914;2023-02-14T05:46:27;37.20;;;16.10;;
71606;SDS011;60641;53.556;9.914;2023-02-14T05:48:53;38.40;;;17.10;;
71606;SDS011;60641;53.556;9.914;2023-02-14T05:51:20;38.60;;;16.40;;
71606;SDS011;60641;53.556;9.914;2023-02-14T05:53:46;38.20;;;16.70;;
71606;SDS011;60641;53.556;9.914;2023-02-14T05:56:13;39.20;;;17.00;;
71606;SDS011;60641;53.556;9.914;2023-02-14T05:58:39;41.30;;;17.80;;
71606;SDS011;60641;53.556;9.914;2023-02-14T06:01:06;39.90;;;17.90;;
71606;SDS011;60641;53.556;9.914;2023-02-14T06:03:33;38.30;;;16.80;;
71606;SDS011;60641;53.556;9.914;2023-02-14T06:05:59;42.10;;;16.90;;
71606;SDS011;60641;53.556;9.914;2023-02-14T06:08:26;40.10;;;16.70;;
71606;SDS011;60641;53.556;9.914;2023-02-14T06:10:52;36.60;;;16.20;;
71606;SDS011;60641;53.556;9.914;2023-02-14T06:13:19;38.20;;;16.60;;
71606;SDS011;60641;53.556;9.914;2023-02-14T06:15:45;37.20;;;16.40;;
71606;SDS011;60641;53.556;9.914;2023-02-14T06:18:12;39.40;;;17.20;;
71606;SDS011;60641;53.556;9.914;2023-02-14T06:20:39;37.80;;;16.70;;
71606;SDS011;60641;53.556;9.914;2023-02-14T06:23:05;40.90;;;16.80;;
71606;SDS011;60641;53.556;9.914;2023-02-14T06:25:32;39.80;;;17.30;;
71606;SDS011;60641;53.556;9.914;2023-02-14T06:27:58;39.00;;;16.20;;
71606;SDS011;60641;53.556;9.914;2023-02-14T06:30:25;38.40;;;17.10;;
71606;SDS011;60641;53.556;9.914;2023-02-14T06:32:52;35.50;;;16.20;;
71606;SDS011;60641;53.556;9.914;2023-02-14T06:35:19;37.20;;;16.60;;
71606;SDS011;60641;53.556;9.914;2023-02-14T06:37:45;36.40;;;15.70;;
71606;SDS011;60641;53.556;9.914;2023-02-14T06:40:12;36.20;;;16.10;;
71606;SDS011;60641;53.556;9.914;2023-02-14T06:42:39;36.10;;;15.80;;
71606;SDS011;60641;53.556;9.914;2023-02-14T06:45:05;37.50;;;16.70;;
71606;SDS011;60641;53.556;9.914;2023-02-14T06:47:32;39.10;;;16.10;;
71606;SDS011;60641;53.556;9.914;2023-02-14T06:49:59;36.90;;;15.60;;
71606;SDS011;60641;53.556;9.914;2023-02-14T06:52:26;36.80;;;16.10;;
71606;SDS011;60641;53.556;9.914;2023-02-14T06:54:53;34.50;;;16.30;;
71606;SDS011;60641;53.556;9.914;2023-02-14T06:57:19;34.10;;;16.00;;
71606;SDS011;60641;53.556;9.914;2023-02-14T06:59:46;35.10;;;15.60;;
71606;SDS011;60641;53.556;9.914;2023-02-14T07:02:12;35.40;;;16.10;;
71606;SDS011;60641;53.556;9.914;2023-02-14T07:04:38;33.80;;;14.50;;
71606;SDS011;60641;53.556;9.914;2023-02-14T07:07:05;37.10;;;17.30;;
71606;SDS011;60641;53.556;9.914;2023-02-14T07:09:31;36.50;;;14.10;;
71606;SDS011;60641;53.556;9.914;2023-02-14T07:11:58;29.30;;;11.10;;
71606;SDS011;60641;53.556;9.914;2023-02-14T07:14:25;34.00;;;14.50;;
71606;SDS011;60641;53.556;9.914;2023-02-14T07:16:52;39.00;;;15.80;;
71606;SDS011;60641;53.556;9.914;2023-02-14T07:19:18;35.10;;;13.80;;
71606;SDS011;60641;53.556;9.914;2023-02-14T07:21:45;38.10;;;15.20;;
71606;SDS011;60641;53.556;9.914;2023-02-14T07:24:11;32.20;;;15.10;;
71606;SDS011;60641;53.556;9.914;2023-02-14T07:26:38;33.80;;;14.50;;
71606;SDS011;60641;53.556;9.914;2023-02-14T07:29:04;32.80;;;13.90;;
71606;SDS011;60641;53.556;9.914;2023-02-14T07:31:31;34.50;;;14.30;;
71606;SDS011;60641;53.556;9.914;2023-02-14T07:33:57;30.50;;;14.40;;
71606;SDS011;60641;53.556;9.914;2023-02-14T07:36:26;32.30;;;14.20;;
71606;SDS011;60641;53.556;9.914;2023-02-14T07:38:54;33.50;;;14.50;;
71606;SDS011;60641;53.556;9.914;2023-02-14T07:41:21;32.20;;;14.40;;
71606;SDS011;60641;53.556;9.914;2023-02-14T07:43:48;30.40;;;13.70;;
71606;SDS011;60641;53.556;9.914;2023-02-14T07:46:14;30.00;;;12.50;;
71606;SDS011;60641;53.556;9.914;2023-02-14T07:48:42;26.00;;;12.00;;
71606;SDS011;60641;53.556;9.914;2023-02-14T07:51:09;22.80;;;8.80;;
71606;SDS011;60641;53.556;9.914;2023-02-14T07:53:35;30.70;;;13.40;;
71606;SDS011;60641;53.556;9.914;2023-02-14T07:56:01;30.40;;;13.20;;
71606;SDS011;60641;53.556;9.914;2023-02-14T07:58:28;34.90;;;13.80;;
71606;SDS011;60641;53.556;9.914;2023-02-14T08:00:54;26.00;;;12.70;;
71606;SDS011;60641;53.556;9.914;2023-02-14T08:03:21;28.10;;;13.20;;
71606;SDS011;60641;53.556;9.914;2023-02-14T08:05:47;27.90;;;13.20;;
71606;SDS011;60641;53.556;9.914;2023-02-14T08:08:23;30.00;;;13.10;;
71606;SDS011;60641;53.556;9.914;2023-02-14T08:10:50;29.20;;;13.40;;
71606;SDS011;60641;53.556;9.914;2023-02-14T08:13:17;31.40;;;13.90;;
71606;SDS011;60641;53.556;9.914;2023-02-14T08:15:43;28.90;;;13.20;;
71606;SDS011;60641;53.556;9.914;2023-02-14T08:18:29;26.90;;;12.30;;
71606;SDS011;60641;53.556;9.914;2023-02-14T08:20:56;28.00;;;12.20;;
71606;SDS011;60641;53.556;9.914;2023-02-14T08:23:22;28.10;;;12.70;;
71606;SDS011;60641;53.556;9.914;2023-02-14T08:25:49;30.90;;;14.50;;
71606;SDS011;60641;53.556;9.914;2023-02-14T08:28:17;31.00;;;13.20;;
71606;SDS011;60641;53.556;9.914;2023-02-14T08:30:44;27.10;;;11.60;;
71606;SDS011;60641;53.556;9.914;2023-02-14T08:33:11;27.10;;;11.60;;
71606;SDS011;60641;53.556;9.914;2023-02-14T08:35:37;28.50;;;13.50;;
71606;SDS011;60641;53.556;9.914;2023-02-14T08:38:04;24.40;;;12.00;;
71606;SDS011;60641;53.556;9.914;2023-02-14T08:40:31;27.10;;;12.30;;
71606;SDS011;60641;53.556;9.914;2023-02-14T08:42:58;24.30;;;11.70;;
71606;SDS011;60641;53.556;9.914;2023-02-14T08:45:24;28.80;;;13.00;;
71606;SDS011;60641;53.556;9.914;2023-02-14T08:47:51;25.40;;;11.70;;
71606;SDS011;60641;53.556;9.914;2023-02-14T08:50:18;25.00;;;11.40;;
71606;SDS011;60641;53.556;9.914;2023-02-14T08:52:44;26.00;;;12.40;;
71606;SDS011;60641;53.556;9.914;2023-02-14T08:55:11;25.40;;;12.30;;
71606;SDS011;60641;53.556;9.914;2023-02-14T08:57:38;25.90;;;11.90;;
71606;SDS011;60641;53.556;9.914;2023-02-14T09:00:05;25.70;;;12.10;;
71606;SDS011;60641;53.556;9.914;2023-02-14T09:02:32;26.80;;;11.90;;
71606;SDS011;60641;53.556;9.914;2023-02-14T09:04:59;24.90;;;11.50;;
71606;SDS011;60641;53.556;9.914;2023-02-14T09:07:26;25.90;;;12.60;;
71606;SDS011;60641;53.556;9.914;2023-02-14T09:09:52;25.20;;;12.00;;
71606;SDS011;60641;53.556;9.914;2023-02-14T09:12:19;23.50;;;10.60;;
71606;SDS011;60641;53.556;9.914;2023-02-14T09:14:45;23.60;;;11.10;;
71606;SDS011;60641;53.556;9.914;2023-02-14T09:17:12;22.60;;;10.90;;
71606;SDS011;60641;53.556;9.914;2023-02-14T09:19:39;24.10;;;11.40;;
71606;SDS011;60641;53.556;9.914;2023-02-14T09:22:06;21.30;;;10.00;;
71606;SDS011;60641;53.556;9.914;2023-02-14T09:24:34;24.10;;;11.70;;
71606;SDS011;60641;53.556;9.914;2023-02-14T09:27:02;23.50;;;12.30;;
71606;SDS011;60641;53.556;9.914;2023-02-14T09:29:29;23.00;;;11.40;;
71606;SDS011;60641;53.556;9.914;2023-02-14T09:31:57;27.10;;;11.90;;
71606;SDS011;60641;53.556;9.914;2023-02-14T09:34:26;23.00;;;9.90;;
71606;SDS011;60641;53.556;9.914;2023-02-14T09:36:53;22.30;;;10.80;;
71606;SDS011;60641;53.556;9.914;2023-02-14T09:39:38;24.60;;;11.40;;
71606;SDS011;60641;53.556;9.914;2023-02-14T09:45:00;24.50;;;12.20;;
71606;SDS011;60641;53.556;9.914;2023-02-14T09:47:50;24.90;;;12.40;;
71606;SDS011;60641;53.556;9.914;2023-02-14T09:53:00;23.20;;;12.40;;
71606;SDS011;60641;53.556;9.914;2023-02-14T09:55:34;23.50;;;12.20;;
71606;SDS011;60641;53.556;9.914;2023-02-14T10:00:45;26.60;;;11.60;;
71606;SDS011;60641;53.556;9.914;2023-02-14T10:06:02;26.20;;;12.60;;
71606;SDS011;60641;53.556;9.914;2023-02-14T10:11:13;24.70;;;12.70;;
71606;SDS011;60641;53.556;9.914;2023-02-14T10:13:43;24.00;;;12.10;;
71606;SDS011;60641;53.556;9.914;2023-02-14T10:18:59;24.60;;;12.90;;
71606;SDS011;60641;53.556;9.914;2023-02-14T10:24:17;25.40;;;12.40;;
71606;SDS011;60641;53.556;9.914;2023-02-14T10:26:49;25.90;;;13.10;;
71606;SDS011;60641;53.556;9.914;2023-02-14T10:29:16;26.50;;;12.70;;
71606;SDS011;60641;53.556;9.914;2023-02-14T10:31:49;21.40;;;10.30;;
71606;SDS011;60641;53.556;9.914;2023-02-14T10:34:23;22.90;;;11.80;;
71606;SDS011;60641;53.556;9.914;2023-02-14T10:37:00;27.10;;;11.90;;
71606;SDS011;60641;53.556;9.914;2023-02-14T10:48:27;24.80;;;11.40;;
71606;SDS011;60641;53.556;9.914;2023-02-14T10:51:17;25.10;;;12.40;;
71606;SDS011;60641;53.556;9.914;2023-02-14T10:56:58;24.70;;;12.70;;
71606;SDS011;60641;53.556;9.914;2023-02-14T10:59:33;21.10;;;9.40;;
71606;SDS011;60641;53.556;9.914;2023-02-14T11:02:04;25.30;;;12.50;;
71606;SDS011;60641;53.556;9.914;2023-02-14T11:04:36;25.00;;;12.50;;
71606;SDS011;60641;53.556;9.914;2023-02-14T11:07:03;23.20;;;12.00;;
71606;SDS011;60641;53.556;9.914;2023-02-14T11:09:29;23.50;;;11.40;;
71606;SDS011;60641;53.556;9.914;2023-02-14T11:11:56;24.10;;;11.60;;
71606;SDS011;60641;53.556;9.914;2023-02-14T11:14:31;25.30;;;12.40;;
71606;SDS011;60641;53.556;9.914;2023-02-14T11:17:25;25.80;;;12.00;;
71606;SDS011;60641;53.556;9.914;2023-02-14T11:19:57;24.90;;;12.50;;
71606;SDS011;60641;53.556;9.914;2023-02-14T11:22:32;24.10;;;12.80;;
71606;SDS011;60641;53.556;9.914;2023-02-14T11:25:03;26.20;;;12.10;;
71606;SDS011;60641;53.556;9.914;2023-02-14T11:27:31;28.10;;;12.90;;
71606;SDS011;60641;53.556;9.914;2023-02-14T11:29:58;25.00;;;12.70;;
71606;SDS011;60641;53.556;9.914;2023-02-14T11:32:28;24.90;;;12.50;;
71606;SDS011;60641;53.556;9.914;2023-02-14T11:35:06;25.70;;;12.90;;
71606;SDS011;60641;53.556;9.914;2023-02-14T11:37:38;25.50;;;13.70;;
71606;SDS011;60641;53.556;9.914;2023-02-14T11:40:22;25.70;;;13.00;;
71606;SDS011;60641;53.556;9.914;2023-02-14T11:45:41;25.60;;;12.10;;
71606;SDS011;60641;53.556;9.914;2023-02-14T11:48:22;24.30;;;12.50;;
71606;SDS011;60641;53.556;9.914;2023-02-14T11:50:56;28.20;;;14.00;;
71606;SDS011;60641;53.556;9.914;2023-02-14T11:53:28;25.60;;;12.30;;
71606;SDS011;60641;53.556;9.914;2023-02-14T11:55:58;27.40;;;13.20;;
71606;SDS011;60641;53.556;9.914;2023-02-14T11:58:30;24.10;;;12.70;;
71606;SDS011;60641;53.556;9.914;2023-02-14T12:00:59;24.60;;;12.90;;
71606;SDS011;60641;53.556;9.914;2023-02-14T12:03:27;27.20;;;13.70;;
71606;SDS011;60641;53.556;9.914;2023-02-14T12:05:54;26.00;;;12.80;;
71606;SDS011;60641;53.556;9.914;2023-02-14T12:08:26;25.70;;;12.50;;
71606;SDS011;60641;53.556;9.914;2023-02-14T12:11:02;25.40;;;12.90;;
71606;SDS011;60641;53.556;9.914;2023-02-14T12:13:50;27.70;;;13.20;;
71606;SDS011;60641;53.556;9.914;2023-02-14T12:16:25;24.60;;;12.50;;
71606;SDS011;60641;53.556;9.914;2023-02-14T12:18:58;28.70;;;13.60;;
71606;SDS011;60641;53.556;9.914;2023-02-14T12:23:59;25.80;;;13.20;;
71606;SDS011;60641;53.556;9.914;2023-02-14T12:29:27;28.70;;;14.80;;
71606;SDS011;60641;53.556;9.914;2023-02-14T12:32:01;26.30;;;12.50;;
71606;SDS011;60641;53.556;9.914;2023-02-14T12:34:37;28.40;;;13.80;;
71606;SDS011;60641;53.556;9.914;2023-02-14T12:37:12;27.60;;;14.40;;
71606;SDS011;60641;53.556;9.914;2023-02-14T12:42:26;28.30;;;14.30;;
71606;SDS011;60641;53.556;9.914;2023-02-14T12:48:03;27.30;;;12.80;;
71606;SDS011;60641;53.556;9.914;2023-02-14T12:56:46;25.50;;;13.00;;
71606;SDS011;60641;53.556;9.914;2023-02-14T13:10:30;24.20;;;12.20;;
71606;SDS011;60641;53.556;9.914;2023-02-14T13:13:18;25.70;;;13.50;;
71606;SDS011;60641;53.556;9.914;2023-02-14T13:18:48;27.10;;;12.90;;
71606;SDS011;60641;53.556;9.914;2023-02-14T13:21:21;21.80;;;11.30;;
71606;SDS011;60641;53.556;9.914;2023-02-14T13:23:50;27.70;;;12.70;;
71606;SDS011;60641;53.556;9.914;2023-02-14T13:26:28;25.80;;;12.50;;
71606;SDS011;60641;53.556;9.914;2023-02-14T13:31:27;15.70;;;7.30;;
71606;SDS011;60641;53.556;9.914;2023-02-14T13:33:59;27.50;;;12.60;;
71606;SDS011;60641;53.556;9.914;2023-02-14T13:36:28;25.20;;;12.70;;
71606;SDS011;60641;53.556;9.914;2023-02-14T13:38:56;24.00;;;12.00;;
71606;SDS011;60641;53.556;9.914;2023-02-14T13:41:23;24.10;;;12.10;;
71606;SDS011;60641;53.556;9.914;2023-02-14T13:43:55;23.90;;;11.90;;
71606;SDS011;60641;53.556;9.914;2023-02-14T13:51:46;24.90;;;13.20;;
71606;SDS011;60641;53.556;9.914;2023-02-14T13:55:00;23.40;;;12.00;;
71606;SDS011;60641;53.556;9.914;2023-02-14T14:00:40;24.00;;;12.40;;
71606;SDS011;60641;53.556;9.914;2023-02-14T14:02:52;21.50;;;11.20;;
71606;SDS011;60641;53.556;9.914;2023-02-14T14:18:49;23.50;;;12.10;;
71606;SDS011;60641;53.556;9.914;2023-02-14T14:24:22;24.80;;;12.50;;
71606;SDS011;60641;53.556;9.914;2023-02-14T14:26:50;25.00;;;12.30;;
71606;SDS011;60641;53.556;9.914;2023-02-14T14:29:31;25.30;;;12.20;;
71606;SDS011;60641;53.556;9.914;2023-02-14T14:35:04;23.50;;;12.20;;
71606;SDS011;60641;53.556;9.914;2023-02-14T14:37:45;20.30;;;9.30;;
71606;SDS011;60641;53.556;9.914;2023-02-14T14:42:52;23.30;;;12.10;;
71606;SDS011;60641;53.556;9.914;2023-02-14T14:45:23;14.90;;;7.40;;
71606;SDS011;60641;53.556;9.914;2023-02-14T14:47:52;20.00;;;8.50;;
71606;SDS011;60641;53.556;9.914;2023-02-14T14:50:21;23.40;;;12.00;;
71606;SDS011;60641;53.556;9.914;2023-02-14T14:53:03;24.60;;;12.50;;
71606;SDS011;60641;53.556;9.914;2023-02-14T14:55:32;24.40;;;12.00;;
71606;SDS011;60641;53.556;9.914;2023-02-14T14:58:04;23.20;;;12.00;;
71606;SDS011;60641;53.556;9.914;2023-02-14T15:00:44;19.80;;;9.90;;
71606;SDS011;60641;53.556;9.914;2023-02-14T15:03:19;23.20;;;11.20;;
71606;SDS011;60641;53.556;9.914;2023-02-14T15:05:47;19.50;;;8.20;;
71606;SDS011;60641;53.556;9.914;2023-02-14T15:10:49;25.00;;;12.20;;
71606;SDS011;60641;53.556;9.914;2023-02-14T15:14:05;23.10;;;11.10;;
71606;SDS011;60641;53.556;9.914;2023-02-14T15:16:45;22.20;;;10.70;;
71606;SDS011;60641;53.556;9.914;2023-02-14T15:21:44;22.60;;;11.50;;
71606;SDS011;60641;53.556;9.914;2023-02-14T15:24:15;20.70;;;11.10;;
71606;SDS011;60641;53.556;9.914;2023-02-14T15:26:44;21.40;;;10.20;;
71606;SDS011;60641;53.556;9.914;2023-02-14T15:29:20;22.90;;;11.30;;
71606;SDS011;60641;53.556;9.914;2023-02-14T15:31:48;27.40;;;11.60;;
71606;SDS011;60641;53.556;9.914;2023-02-14T15:34:15;28.00;;;14.90;;
71606;SDS011;60641;53.556;9.914;2023-02-14T15:36:44;24.30;;;12.70;;
71606;SDS011;60641;53.556;9.914;2023-02-14T15:39:17;23.30;;;11.10;;
71606;SDS011;60641;53.556;9.914;2023-02-14T15:41:44;21.90;;;10.90;;
71606;SDS011;60641;53.556;9.914;2023-02-14T15:44:18;24.10;;;11.80;;
71606;SDS011;60641;53.556;9.914;2023-02-14T15:46:52;22.70;;;9.90;;
71606;SDS011;60641;53.556;9.914;2023-02-14T15:49:21;21.20;;;11.20;;
71606;SDS011;60641;53.556;9.914;2023-02-14T15:51:52;21.80;;;11.30;;
71606;SDS011;60641;53.556;9.914;2023-02-14T15:54:30;23.70;;;11.90;;
71606;SDS011;60641;53.556;9.914;2023-02-14T15:56:59;23.20;;;11.40;;
71606;SDS011;60641;53.556;9.914;2023-02-14T15:59:26;23.00;;;11.10;;
71606;SDS011;60641;53.556;9.914;2023-02-14T16:02:11;23.00;;;11.10;;
71606;SDS011;60641;53.556;9.914;2023-02-14T16:04:53;23.20;;;10.50;;
71606;SDS011;60641;53.556;9.914;2023-02-14T16:09:47;25.00;;;11.90;;
71606;SDS011;60641;53.556;9.914;2023-02-14T16:12:26;21.50;;;10.60;;
71606;SDS011;60641;53.556;9.914;2023-02-14T16:17:40;24.70;;;12.00;;
71606;SDS011;60641;53.556;9.914;2023-02-14T16:25:41;22.90;;;11.20;;
71606;SDS011;60641;53.556;9.914;2023-02-14T16:28:08;21.60;;;10.80;;
71606;SDS011;60641;53.556;9.914;2023-02-14T16:30:35;21.10;;;9.90;;
71606;SDS011;60641;53.556;9.914;2023-02-14T16:33:02;22.00;;;11.20;;
71606;SDS011;60641;53.556;9.914;2023-02-14T16:35:31;22.20;;;11.00;;
71606;SDS011;60641;53.556;9.914;2023-02-14T16:37:57;22.40;;;10.90;;
71606;SDS011;60641;53.556;9.914;2023-02-14T16:40:25;23.70;;;11.40;;
71606;SDS011;60641;53.556;9.914;2023-02-14T16:42:52;22.40;;;10.40;;
71606;SDS011;60641;53.556;9.914;2023-02-14T16:45:20;22.50;;;11.00;;
71606;SDS011;60641;53.556;9.914;2023-02-14T16:47:46;21.40;;;10.90;;
71606;SDS011;60641;53.556;9.914;2023-02-14T16:50:14;21.30;;;11.20;;
71606;SDS011;60641;53.556;9.914;2023-02-14T16:52:41;23.20;;;11.10;;
71606;SDS011;60641;53.556;9.914;2023-02-14T16:55:15;20.60;;;10.90;;
71606;SDS011;60641;53.556;9.914;2023-02-14T16:57:45;21.40;;;10.60;;
71606;SDS011;60641;53.556;9.914;2023-02-14T17:00:13;24.20;;;10.90;;
71606;SDS011;60641;53.556;9.914;2023-02-14T17:02:40;24.20;;;11.00;;
71606;SDS011;60641;53.556;9.914;2023-02-14T17:05:08;23.50;;;11.30;;
71606;SDS011;60641;53.556;9.914;2023-02-14T17:07:34;22.40;;;11.30;;
71606;SDS011;60641;53.556;9.914;2023-02-14T17:10:07;21.40;;;9.70;;
71606;SDS011;60641;53.556;9.914;2023-02-14T17:12:36;21.90;;;10.10;;
71606;SDS011;60641;53.556;9.914;2023-02-14T17:15:07;22.80;;;11.30;;
71606;SDS011;60641;53.556;9.914;2023-02-14T17:17:35;21.80;;;10.30;;
71606;SDS011;60641;53.556;9.914;2023-02-14T17:20:03;22.80;;;11.00;;
71606;SDS011;60641;53.556;9.914;2023-02-14T17:22:31;24.60;;;11.50;;
71606;SDS011;60641;53.556;9.914;2023-02-14T17:24:59;21.00;;;10.70;;
71606;SDS011;60641;53.556;9.914;2023-02-14T17:27:25;24.30;;;11.10;;
71606;SDS011;60641;53.556;9.914;2023-02-14T17:29:52;22.80;;;11.50;;
71606;SDS011;60641;53.556;9.914;2023-02-14T17:32:18;23.70;;;12.00;;